createdAt,value
2018-06-17T00:01:08.234Z,17.60
2018-06-17T00:03:36.577Z,17.70
2018-06-17T00:06:04.839Z,17.70
2018-06-17T00:08:33.129Z,17.60
2018-06-17T00:11:01.475Z,17.60
2018-06-17T00:13:29.850Z,17.50
2018-06-17T00:15:58.207Z,17.50
2018-06-17T00:18:26.502Z,17.40
2018-06-17T00:20:54.884Z,17.40
2018-06-17T00:23:23.303Z,17.40
2018-06-17T00:25:51.600Z,17.30
2018-06-17T00:28:19.896Z,17.30
2018-06-17T00:30:48.255Z,17.20
2018-06-17T00:33:16.596Z,17.20
2018-06-17T00:35:45.030Z,17.10
2018-06-17T00:38:13.396Z,17.10
2018-06-17T00:40:41.758Z,17.10
2018-06-17T00:43:10.072Z,17.00
2018-06-17T00:45:38.371Z,16.90
2018-06-17T00:48:06.700Z,16.90
2018-06-17T00:50:35.009Z,16.80
2018-06-17T00:53:03.311Z,16.80
2018-06-17T00:55:31.608Z,16.80
2018-06-17T00:57:59.902Z,16.70
2018-06-17T01:00:28.180Z,16.80
2018-06-17T01:02:56.533Z,16.80
2018-06-17T01:05:24.953Z,16.90
2018-06-17T01:07:53.603Z,16.80
2018-06-17T01:10:22.020Z,16.80
2018-06-17T01:12:50.421Z,16.70
2018-06-17T01:15:19.023Z,16.70
2018-06-17T01:17:47.302Z,16.70
2018-06-17T01:20:15.594Z,16.60
2018-06-17T01:22:43.882Z,16.60
2018-06-17T01:25:12.191Z,16.50
2018-06-17T01:27:40.495Z,16.50
2018-06-17T01:30:08.898Z,16.50
2018-06-17T01:32:37.271Z,16.50
2018-06-17T01:35:05.565Z,16.40
2018-06-17T01:37:33.946Z,16.40
2018-06-17T01:40:02.285Z,16.30
2018-06-17T01:42:30.595Z,16.30
2018-06-17T01:44:58.944Z,16.30
2018-06-17T01:47:27.562Z,16.20
2018-06-17T01:49:55.931Z,16.20
2018-06-17T01:52:24.253Z,16.20
2018-06-17T01:54:52.578Z,16.20
2018-06-17T01:57:20.911Z,16.10
2018-06-17T01:59:49.208Z,16.00
2018-06-17T02:02:17.518Z,16.10
2018-06-17T02:04:51.312Z,16.00
2018-06-17T02:07:25.108Z,16.10
2018-06-17T02:09:58.908Z,16.00
2018-06-17T02:12:28.242Z,15.90
2018-06-17T02:14:57.797Z,15.90
2018-06-17T02:17:26.966Z,15.80
2018-06-17T02:19:55.793Z,15.60
2018-06-17T02:22:24.355Z,15.60
2018-06-17T02:24:53.226Z,15.60
2018-06-17T02:27:21.548Z,15.60
2018-06-17T02:29:49.871Z,15.50
2018-06-17T02:32:18.205Z,15.50
2018-06-17T02:34:46.504Z,15.30
2018-06-17T02:37:14.777Z,15.30
2018-06-17T02:39:43.066Z,15.30
2018-06-17T02:42:11.341Z,15.40
2018-06-17T02:44:39.699Z,15.30
2018-06-17T02:48:17.732Z,15.40
2018-06-17T02:50:51.950Z,15.30
2018-06-17T02:53:25.754Z,15.30
2018-06-17T02:55:54.022Z,15.40
2018-06-17T02:58:22.328Z,15.30
2018-06-17T03:00:50.654Z,15.30
2018-06-17T03:03:18.932Z,15.30
2018-06-17T03:05:47.225Z,15.30
2018-06-17T03:08:15.519Z,15.40
2018-06-17T03:10:43.865Z,15.40
2018-06-17T03:13:12.253Z,15.30
2018-06-17T03:15:40.643Z,15.30
2018-06-17T03:18:09.012Z,15.20
2018-06-17T03:20:37.324Z,15.20
2018-06-17T03:23:05.747Z,15.20
2018-06-17T03:25:39.568Z,15.20
2018-06-17T03:28:13.174Z,15.20
2018-06-17T03:30:47.864Z,15.10
2018-06-17T03:34:24.460Z,15.10
2018-06-17T03:36:52.775Z,15.20
2018-06-17T03:39:21.095Z,15.20
2018-06-17T03:41:49.474Z,15.20
2018-06-17T03:44:17.921Z,15.30
2018-06-17T03:46:46.306Z,15.30
2018-06-17T03:49:14.644Z,15.30
2018-06-17T03:51:42.960Z,15.30
2018-06-17T03:54:11.297Z,15.30
2018-06-17T03:56:39.592Z,15.40
2018-06-17T04:01:35.954Z,15.40
2018-06-17T04:06:32.461Z,15.50
2018-06-17T04:09:00.782Z,15.60
2018-06-17T04:11:29.096Z,15.60
2018-06-17T04:13:57.415Z,15.70
2018-06-17T04:16:25.770Z,15.70
2018-06-17T04:18:54.068Z,15.70
2018-06-17T04:21:22.418Z,15.70
2018-06-17T04:23:50.789Z,15.80
2018-06-17T04:26:19.112Z,15.80
2018-06-17T04:28:47.409Z,15.70
2018-06-17T04:31:15.708Z,15.80
2018-06-17T04:33:43.998Z,15.80
2018-06-17T04:36:12.289Z,15.80
2018-06-17T04:38:40.603Z,15.70
2018-06-17T04:41:08.954Z,15.80
2018-06-17T04:43:37.260Z,15.80
2018-06-17T04:46:05.571Z,15.70
2018-06-17T04:48:34.020Z,15.80
2018-06-17T04:51:02.223Z,15.80
2018-06-17T04:53:30.512Z,15.80
2018-06-17T04:55:58.929Z,15.80
2018-06-17T04:58:27.250Z,15.80
2018-06-17T05:00:56.407Z,15.70
2018-06-17T05:03:24.700Z,15.80
2018-06-17T05:05:53.029Z,15.70
2018-06-17T05:08:21.329Z,15.70
2018-06-17T05:10:49.649Z,15.80
2018-06-17T05:13:17.976Z,15.70
2018-06-17T05:15:46.309Z,15.80
2018-06-17T05:18:14.586Z,15.80
2018-06-17T05:20:42.904Z,15.90
2018-06-17T05:23:11.345Z,16.00
2018-06-17T05:25:39.711Z,16.00
2018-06-17T05:28:07.983Z,16.10
2018-06-17T05:30:36.393Z,16.30
2018-06-17T05:33:04.757Z,16.30
2018-06-17T05:35:33.211Z,16.30
2018-06-17T05:38:01.551Z,16.30
2018-06-17T05:40:29.828Z,16.30
2018-06-17T05:42:58.184Z,16.50
2018-06-17T05:45:26.495Z,16.40
2018-06-17T05:47:55.024Z,16.50
2018-06-17T05:50:23.414Z,16.60
2018-06-17T05:52:51.875Z,16.80
2018-06-17T05:55:20.284Z,16.80
2018-06-17T05:57:48.664Z,16.70
2018-06-17T06:00:17.014Z,16.90
2018-06-17T06:02:45.299Z,16.90
2018-06-17T06:05:13.637Z,17.00
2018-06-17T06:07:41.974Z,17.10
2018-06-17T06:10:10.311Z,17.20
2018-06-17T06:12:38.741Z,17.20
2018-06-17T06:15:07.123Z,17.10
2018-06-17T06:17:35.579Z,17.10
2018-06-17T06:20:03.951Z,17.00
2018-06-17T06:22:32.232Z,17.00
2018-06-17T06:25:00.504Z,17.10
2018-06-17T06:27:28.797Z,17.10
2018-06-17T06:29:57.085Z,17.20
2018-06-17T06:32:25.375Z,17.30
2018-06-17T06:34:53.713Z,17.30
2018-06-17T06:37:22.038Z,17.30
2018-06-17T06:39:50.320Z,17.40
2018-06-17T06:42:18.605Z,17.50
2018-06-17T06:47:15.048Z,17.70
2018-06-17T06:49:43.362Z,17.60
2018-06-17T06:52:11.660Z,17.60
2018-06-17T06:54:39.997Z,17.70
2018-06-17T06:57:08.253Z,17.60
2018-06-17T06:59:36.702Z,17.60
2018-06-17T07:02:16.528Z,17.80
2018-06-17T07:04:56.217Z,17.60
2018-06-17T07:10:09.529Z,17.60
2018-06-17T07:12:37.907Z,17.60
2018-06-17T07:15:06.451Z,17.70
2018-06-17T07:17:46.143Z,17.70
2018-06-17T07:20:14.501Z,17.90
2018-06-17T07:22:42.829Z,18.00
2018-06-17T07:26:18.388Z,17.90
2018-06-17T07:28:58.045Z,17.90
2018-06-17T07:31:26.361Z,18.00
2018-06-17T07:33:54.661Z,18.10
2018-06-17T07:36:23.054Z,18.20
2018-06-17T07:38:51.342Z,18.20
2018-06-17T07:41:19.653Z,18.20
2018-06-17T07:43:48.045Z,18.20
2018-06-17T07:46:16.338Z,18.20
2018-06-17T07:49:53.803Z,18.20
2018-06-17T07:52:34.705Z,18.30
2018-06-17T07:55:03.100Z,18.40
2018-06-17T07:57:32.670Z,18.20
2018-06-17T08:00:01.072Z,18.30
2018-06-17T08:02:29.476Z,18.30
2018-06-17T08:04:57.985Z,18.30
2018-06-17T08:07:26.403Z,18.30
2018-06-17T08:09:54.941Z,18.50
2018-06-17T08:12:23.305Z,18.70
2018-06-17T08:14:51.638Z,18.40
2018-06-17T08:17:20.008Z,18.60
2018-06-17T08:19:48.354Z,18.80
2018-06-17T08:22:16.663Z,18.60
2018-06-17T08:24:45.007Z,18.50
2018-06-17T08:27:13.295Z,18.80
2018-06-17T08:29:41.738Z,19.20
2018-06-17T08:32:10.052Z,19.50
2018-06-17T08:34:38.586Z,19.60
2018-06-17T08:37:06.944Z,19.50
2018-06-17T08:39:35.289Z,19.30
2018-06-17T08:42:03.694Z,19.20
2018-06-17T08:44:32.040Z,19.30
2018-06-17T08:47:00.985Z,19.30
2018-06-17T08:49:29.451Z,19.30
2018-06-17T08:51:57.761Z,19.10
2018-06-17T08:54:26.101Z,19.10
2018-06-17T08:56:54.429Z,18.80
2018-06-17T08:59:22.788Z,18.90
2018-06-17T09:04:19.200Z,19.40
2018-06-17T09:06:47.578Z,19.10
2018-06-17T09:09:15.897Z,19.00
2018-06-17T09:11:44.217Z,19.20
2018-06-17T09:14:12.553Z,19.40
2018-06-17T09:16:40.943Z,19.60
2018-06-17T09:19:09.315Z,19.80
2018-06-17T09:21:37.664Z,19.70
2018-06-17T09:24:05.974Z,19.70
2018-06-17T09:26:34.278Z,19.60
2018-06-17T09:29:02.648Z,19.60
2018-06-17T09:31:30.948Z,19.40
2018-06-17T09:33:59.322Z,19.30
2018-06-17T09:36:27.596Z,19.10
2018-06-17T09:38:55.920Z,19.00
2018-06-17T09:41:24.262Z,19.00
2018-06-17T09:43:52.679Z,19.00
2018-06-17T09:46:21.035Z,18.90
2018-06-17T09:48:49.335Z,18.70
2018-06-17T09:51:17.651Z,18.80
2018-06-17T09:53:46.032Z,19.00
2018-06-17T09:56:14.384Z,19.30
2018-06-17T10:01:10.768Z,19.50
2018-06-17T10:03:39.145Z,19.80
2018-06-17T10:06:07.508Z,19.90
2018-06-17T10:08:35.833Z,19.80
2018-06-17T10:11:06.214Z,19.80
2018-06-17T10:13:42.298Z,19.60
2018-06-17T10:16:11.088Z,19.50
2018-06-17T10:18:39.377Z,19.40
2018-06-17T10:21:07.767Z,19.30
2018-06-17T10:23:36.052Z,19.50
2018-06-17T10:26:04.547Z,19.60
2018-06-17T10:28:33.608Z,19.40
2018-06-17T10:31:03.463Z,19.40
2018-06-17T10:33:31.798Z,19.40
2018-06-17T10:36:00.153Z,19.40
2018-06-17T10:38:28.421Z,19.40
2018-06-17T10:40:56.710Z,19.40
2018-06-17T10:43:26.601Z,19.40
2018-06-17T10:45:54.916Z,19.50
2018-06-17T10:48:23.322Z,19.60
2018-06-17T10:50:51.618Z,19.60
2018-06-17T10:53:19.900Z,19.30
2018-06-17T10:55:48.218Z,19.30
2018-06-17T10:58:16.542Z,19.20
2018-06-17T11:03:12.972Z,19.50
2018-06-17T11:05:41.371Z,19.60
2018-06-17T11:08:09.585Z,19.70
2018-06-17T11:10:37.869Z,19.70
2018-06-17T11:13:06.303Z,19.80
2018-06-17T11:15:34.598Z,19.90
2018-06-17T11:18:02.973Z,19.90
2018-06-17T11:20:31.297Z,19.60
2018-06-17T11:22:59.631Z,19.60
2018-06-17T11:25:27.949Z,19.40
2018-06-17T11:27:56.254Z,19.20
2018-06-17T11:30:24.582Z,19.20
2018-06-17T11:32:52.891Z,19.10
2018-06-17T11:35:21.206Z,19.40
2018-06-17T11:37:49.555Z,19.60
2018-06-17T11:40:17.892Z,19.60
2018-06-17T11:42:46.194Z,19.60
2018-06-17T11:45:14.512Z,19.60
2018-06-17T11:47:42.834Z,19.30
2018-06-17T11:50:11.119Z,19.10
2018-06-17T11:52:39.524Z,19.00
2018-06-17T11:55:07.962Z,19.00
2018-06-17T11:57:36.311Z,18.90
2018-06-17T12:00:04.729Z,19.00
2018-06-17T12:02:33.243Z,19.20
2018-06-17T12:05:01.539Z,19.40
2018-06-17T12:07:29.960Z,19.70
2018-06-17T12:09:58.255Z,19.70
2018-06-17T12:12:26.595Z,19.90
2018-06-17T12:14:55.059Z,20.00
2018-06-17T12:17:23.380Z,19.90
2018-06-17T12:19:51.763Z,19.80
2018-06-17T12:22:20.232Z,19.60
2018-06-17T12:24:48.580Z,19.60
2018-06-17T12:27:16.921Z,19.80
2018-06-17T12:29:45.272Z,20.20
2018-06-17T12:32:13.607Z,20.30
2018-06-17T12:34:42.147Z,20.20
2018-06-17T12:37:10.596Z,20.30
2018-06-17T12:39:38.992Z,20.30
2018-06-17T12:42:07.306Z,20.70
2018-06-17T12:44:35.592Z,20.70
2018-06-17T12:47:03.934Z,20.60
2018-06-17T12:49:32.325Z,20.40
2018-06-17T12:52:00.664Z,20.50
2018-06-17T12:54:28.956Z,20.30
2018-06-17T12:56:57.237Z,19.90
2018-06-17T12:59:25.574Z,19.70
2018-06-17T13:01:53.901Z,19.70
2018-06-17T13:04:22.213Z,20.00
2018-06-17T13:06:50.533Z,20.10
2018-06-17T13:09:18.794Z,20.00
2018-06-17T13:11:47.763Z,19.80
2018-06-17T13:14:16.154Z,19.90
2018-06-17T13:16:44.614Z,19.90
2018-06-17T13:19:12.986Z,19.90
2018-06-17T13:21:41.247Z,19.70
2018-06-17T13:24:09.559Z,19.70
2018-06-17T13:26:37.923Z,19.60
2018-06-17T13:29:06.299Z,19.60
2018-06-17T13:34:02.579Z,19.60
2018-06-17T13:36:30.951Z,19.50
2018-06-17T13:38:59.270Z,19.70
2018-06-17T13:41:27.555Z,19.80
2018-06-17T13:46:24.045Z,19.80
2018-06-17T13:48:52.390Z,19.70
2018-06-17T13:51:20.765Z,19.80
2018-06-17T13:53:49.260Z,19.80
2018-06-17T13:56:17.553Z,19.90
2018-06-17T13:58:45.862Z,20.10
2018-06-17T14:01:14.133Z,20.60
2018-06-17T14:03:42.821Z,20.80
2018-06-17T14:06:11.131Z,21.00
2018-06-17T14:08:39.450Z,21.20
2018-06-17T14:11:07.855Z,21.30
2018-06-17T14:13:36.307Z,21.40
2018-06-17T14:16:04.831Z,20.90
2018-06-17T14:18:33.250Z,20.60
2018-06-17T14:21:01.575Z,20.30
2018-06-17T14:23:29.906Z,20.60
2018-06-17T14:25:58.249Z,20.80
2018-06-17T14:28:26.605Z,20.70
2018-06-17T14:30:54.888Z,20.60
2018-06-17T14:33:23.215Z,20.40
2018-06-17T14:35:51.538Z,20.40
2018-06-17T14:38:19.879Z,20.50
2018-06-17T14:40:53.623Z,20.90
2018-06-17T14:43:27.405Z,21.10
2018-06-17T14:45:56.878Z,20.90
2018-06-17T14:48:30.639Z,20.60
2018-06-17T14:52:04.100Z,20.30
2018-06-17T14:54:32.477Z,20.30
2018-06-17T14:57:00.913Z,19.80
2018-06-17T14:59:29.303Z,19.70
2018-06-17T15:01:57.770Z,19.60
2018-06-17T15:04:26.077Z,19.80
2018-06-17T15:09:22.564Z,20.30
2018-06-17T15:11:50.907Z,20.50
2018-06-17T15:14:19.242Z,20.60
2018-06-17T15:16:48.774Z,21.00
2018-06-17T15:19:17.102Z,21.10
2018-06-17T15:21:45.511Z,21.10
2018-06-17T15:24:13.800Z,21.00
2018-06-17T15:26:42.160Z,20.80
2018-06-17T15:29:10.491Z,20.70
2018-06-17T15:31:44.353Z,20.80
2018-06-17T15:34:18.133Z,20.60
2018-06-17T15:36:51.884Z,20.70
2018-06-17T15:39:25.657Z,20.90
2018-06-17T15:41:54.337Z,20.80
2018-06-17T15:44:22.705Z,20.90
2018-06-17T15:46:51.023Z,20.90
2018-06-17T15:49:19.388Z,21.20
2018-06-17T15:51:47.776Z,21.30
2018-06-17T15:54:16.111Z,21.00
2018-06-17T15:56:44.524Z,20.70
2018-06-17T15:59:13.354Z,20.40
2018-06-17T16:01:41.763Z,20.40
2018-06-17T16:04:10.082Z,20.70
2018-06-17T16:06:38.360Z,20.90
2018-06-17T16:11:40.212Z,21.20
2018-06-17T16:14:13.949Z,21.40
2018-06-17T16:16:47.712Z,21.30
2018-06-17T16:19:21.563Z,21.20
2018-06-17T16:21:49.898Z,21.10
2018-06-17T16:24:18.247Z,20.40
2018-06-17T16:26:47.593Z,20.10
2018-06-17T16:29:16.019Z,20.30
2018-06-17T16:31:44.703Z,20.30
2018-06-17T16:34:13.002Z,20.40
2018-06-17T16:36:41.277Z,20.40
2018-06-17T16:39:11.507Z,20.30
2018-06-17T16:41:40.190Z,20.10
2018-06-17T16:44:09.216Z,20.00
2018-06-17T16:46:37.832Z,20.20
2018-06-17T16:49:06.647Z,20.10
2018-06-17T16:51:40.456Z,20.00
2018-06-17T16:54:14.326Z,19.80
2018-06-17T16:56:48.178Z,19.50
2018-06-17T16:59:21.887Z,19.60
2018-06-17T17:01:56.812Z,19.30
2018-06-17T17:04:25.489Z,19.20
2018-06-17T17:06:54.789Z,19.20
2018-06-17T17:09:23.191Z,19.30
2018-06-17T17:11:51.637Z,19.40
2018-06-17T17:14:19.981Z,19.50
2018-06-17T17:16:49.132Z,19.50
2018-06-17T17:19:17.463Z,19.60
2018-06-17T17:21:45.827Z,19.80
2018-06-17T17:24:14.170Z,19.70
2018-06-17T17:26:42.468Z,19.80
2018-06-17T17:29:10.821Z,19.70
2018-06-17T17:31:44.442Z,19.60
2018-06-17T17:34:18.007Z,19.30
2018-06-17T17:36:51.662Z,19.20
2018-06-17T17:39:25.425Z,19.30
2018-06-17T17:41:53.802Z,19.40
2018-06-17T17:44:22.257Z,19.50
2018-06-17T17:46:56.176Z,19.60
2018-06-17T17:49:24.481Z,19.60
2018-06-17T17:51:52.891Z,19.60
2018-06-17T17:54:21.333Z,19.50
2018-06-17T17:56:49.557Z,19.50
2018-06-17T17:59:18.789Z,19.60
2018-06-17T18:01:47.131Z,19.60
2018-06-17T18:04:15.567Z,19.50
2018-06-17T18:06:43.867Z,19.40
2018-06-17T18:09:12.183Z,19.30
2018-06-17T18:11:40.669Z,19.30
2018-06-17T18:14:11.312Z,19.30
2018-06-17T18:16:39.649Z,19.50
2018-06-17T18:19:08.091Z,19.50
2018-06-17T18:21:36.589Z,19.60
2018-06-17T18:24:21.109Z,19.60
2018-06-17T18:29:35.014Z,19.40
2018-06-17T18:32:08.628Z,19.40
2018-06-17T18:34:42.314Z,19.30
2018-06-17T18:37:10.800Z,19.30
2018-06-17T18:39:39.272Z,19.20
2018-06-17T18:42:08.061Z,19.20
2018-06-17T18:44:36.429Z,19.20
2018-06-17T18:47:04.745Z,19.10
2018-06-17T18:52:01.137Z,19.00
2018-06-17T18:54:29.452Z,18.90
2018-06-17T18:56:58.093Z,18.90
2018-06-17T18:59:26.443Z,18.90
2018-06-17T19:02:27.007Z,18.90
2018-06-17T19:04:58.350Z,18.90
2018-06-17T19:07:31.090Z,18.70
2018-06-17T19:10:09.915Z,18.70
2018-06-17T19:12:43.835Z,18.50
2018-06-17T19:15:18.072Z,18.30
2018-06-17T19:17:52.042Z,18.20
2018-06-17T19:20:20.845Z,18.00
2018-06-17T19:25:17.528Z,17.60
2018-06-17T19:27:53.729Z,17.50
2018-06-17T19:30:32.109Z,17.40
2018-06-17T19:33:00.602Z,17.30
2018-06-17T19:35:30.632Z,17.20
2018-06-17T19:37:59.301Z,17.10
2018-06-17T19:40:32.866Z,17.10
2018-06-17T19:43:02.836Z,17.10
2018-06-17T19:45:32.273Z,17.00
2018-06-17T19:48:08.012Z,17.00
2018-06-17T19:50:42.145Z,17.00
2018-06-17T19:53:28.133Z,16.90
2018-06-17T19:56:05.706Z,16.80
2018-06-17T19:58:42.632Z,16.80
2018-06-17T20:01:25.156Z,16.70
2018-06-17T20:06:40.861Z,16.50
2018-06-17T20:09:12.802Z,16.50
2018-06-17T20:11:41.285Z,16.50
2018-06-17T20:14:09.667Z,16.50
2018-06-17T20:16:38.539Z,16.50
2018-06-17T20:19:06.895Z,16.40
2018-06-17T20:21:35.283Z,16.50
2018-06-17T20:24:03.638Z,16.50
2018-06-17T20:26:32.157Z,16.60
2018-06-17T20:29:00.493Z,16.60
2018-06-17T20:31:29.011Z,16.50
2018-06-17T20:34:02.812Z,16.50
2018-06-17T20:36:36.694Z,16.50
2018-06-17T20:39:13.315Z,16.50
2018-06-17T20:41:47.055Z,16.50
2018-06-17T20:44:15.403Z,16.50
2018-06-17T20:46:44.005Z,16.50
2018-06-17T20:49:13.431Z,16.50
2018-06-17T20:51:41.854Z,16.60
2018-06-17T20:54:10.164Z,16.60
2018-06-17T20:56:38.502Z,16.50
2018-06-17T20:59:06.856Z,16.40
2018-06-17T21:01:35.429Z,16.40
2018-06-17T21:04:03.970Z,16.50
2018-06-17T21:06:32.386Z,16.50
2018-06-17T21:09:00.932Z,16.50
2018-06-17T21:11:29.350Z,16.40
2018-06-17T21:13:57.795Z,16.50
2018-06-17T21:16:26.280Z,16.40
2018-06-17T21:21:33.516Z,16.50
2018-06-17T21:25:11.002Z,16.40
2018-06-17T21:27:40.762Z,16.40
2018-06-17T21:30:09.886Z,16.40
2018-06-17T21:32:38.907Z,16.30
2018-06-17T21:35:07.434Z,16.30
2018-06-17T21:37:36.060Z,16.20
2018-06-17T21:40:04.536Z,16.20
2018-06-17T21:42:33.151Z,16.20
2018-06-17T21:45:01.508Z,16.30
2018-06-17T21:47:29.827Z,16.30
2018-06-17T21:49:58.172Z,16.40
2018-06-17T21:52:26.565Z,16.40
2018-06-17T21:54:54.873Z,16.30
2018-06-17T21:57:23.407Z,16.30
2018-06-17T21:59:51.758Z,16.40
2018-06-17T22:02:20.123Z,16.40
2018-06-17T22:04:48.463Z,16.30
2018-06-17T22:07:16.843Z,16.30
2018-06-17T22:09:50.648Z,16.30
2018-06-17T22:12:24.408Z,16.30
2018-06-17T22:14:58.282Z,16.20
2018-06-17T22:17:32.044Z,16.20
2018-06-17T22:20:00.403Z,16.20
2018-06-17T22:22:28.768Z,16.10
2018-06-17T22:24:57.087Z,16.10
2018-06-17T22:27:25.471Z,16.20
2018-06-17T22:29:53.806Z,16.20
2018-06-17T22:32:22.125Z,16.20
2018-06-17T22:34:50.645Z,16.20
2018-06-17T22:37:18.936Z,16.20
2018-06-17T22:39:47.309Z,16.20
2018-06-17T22:42:16.440Z,16.30
2018-06-17T22:44:44.824Z,16.20
2018-06-17T22:47:16.793Z,16.20
2018-06-17T22:49:45.210Z,16.20
2018-06-17T22:52:13.520Z,16.20
2018-06-17T22:54:50.025Z,16.10
2018-06-17T22:57:23.670Z,16.10
2018-06-17T22:59:57.340Z,16.20
2018-06-17T23:02:30.935Z,16.10
2018-06-17T23:05:04.685Z,16.20
2018-06-17T23:07:38.363Z,16.20
2018-06-17T23:10:08.584Z,16.20
2018-06-17T23:12:36.896Z,16.20
2018-06-17T23:15:05.410Z,16.30
2018-06-17T23:17:33.716Z,16.30
2018-06-17T23:20:02.070Z,16.30
2018-06-17T23:22:30.433Z,16.30
2018-06-17T23:24:58.763Z,16.30
2018-06-17T23:27:27.108Z,16.30
2018-06-17T23:29:55.435Z,16.30
2018-06-17T23:32:23.779Z,16.30
2018-06-17T23:34:52.040Z,16.20
2018-06-17T23:37:20.359Z,16.20
2018-06-17T23:39:48.690Z,16.20
2018-06-17T23:42:17.011Z,16.20
2018-06-17T23:44:45.325Z,16.20
2018-06-17T23:47:18.937Z,16.20
2018-06-17T23:49:52.544Z,16.10
2018-06-17T23:52:26.294Z,16.10
2018-06-17T23:55:00.104Z,16.00
2018-06-17T23:57:28.501Z,16.00
2018-06-17T23:59:56.789Z,16.10
